sensor_id;sensor_type;location;lat;lon;timestamp;P1;durP1;ratioP1;P2;durP2;ratioP2
46040;SDS011;31779;49.124;19.190;2022-11-20T00:01:32;37.92;;;28.77;;
46040;SDS011;31779;49.124;19.190;2022-11-20T00:04:10;39.33;;;27.58;;
46040;SDS011;31779;49.124;19.190;2022-11-20T00:06:39;37.95;;;26.17;;
46040;SDS011;31779;49.124;19.190;2022-11-20T00:09:09;38.33;;;28.48;;
46040;SDS011;31779;49.124;19.190;2022-11-20T00:14:05;35.92;;;27.40;;
46040;SDS011;31779;49.124;19.190;2022-11-20T00:16:51;36.80;;;26.85;;
46040;SDS011;31779;49.124;19.190;2022-11-20T00:19:19;40.60;;;28.65;;
46040;SDS011;31779;49.124;19.190;2022-11-20T00:21:47;39.85;;;30.08;;
46040;SDS011;31779;49.124;19.190;2022-11-20T00:24:18;42.58;;;29.10;;
46040;SDS011;31779;49.124;19.190;2022-11-20T00:26:46;49.38;;;30.90;;
46040;SDS011;31779;49.124;19.190;2022-11-20T00:29:16;37.80;;;27.08;;
46040;SDS011;31779;49.124;19.190;2022-11-20T00:31:44;38.67;;;26.40;;
46040;SDS011;31779;49.124;19.190;2022-11-20T00:34:12;40.85;;;28.52;;
46040;SDS011;31779;49.124;19.190;2022-11-20T00:36:39;41.25;;;27.33;;
46040;SDS011;31779;49.124;19.190;2022-11-20T00:41:57;43.65;;;26.38;;
46040;SDS011;31779;49.124;19.190;2022-11-20T00:44:33;38.40;;;25.67;;
46040;SDS011;31779;49.124;19.190;2022-11-20T00:47:01;49.55;;;32.42;;
46040;SDS011;31779;49.124;19.190;2022-11-20T00:49:29;49.33;;;32.10;;
46040;SDS011;31779;49.124;19.190;2022-11-20T00:51:57;49.85;;;31.88;;
46040;SDS011;31779;49.124;19.190;2022-11-20T00:54:25;47.85;;;32.40;;
46040;SDS011;31779;49.124;19.190;2022-11-20T00:56:52;41.97;;;27.58;;
46040;SDS011;31779;49.124;19.190;2022-11-20T00:59:21;42.80;;;29.60;;
46040;SDS011;31779;49.124;19.190;2022-11-20T01:02:14;43.25;;;29.98;;
46040;SDS011;31779;49.124;19.190;2022-11-20T01:04:43;45.10;;;31.73;;
46040;SDS011;31779;49.124;19.190;2022-11-20T01:07:11;44.38;;;29.42;;
46040;SDS011;31779;49.124;19.190;2022-11-20T01:09:40;37.88;;;29.55;;
46040;SDS011;31779;49.124;19.190;2022-11-20T01:12:15;43.67;;;30.02;;
46040;SDS011;31779;49.124;19.190;2022-11-20T01:14:43;41.58;;;28.63;;
46040;SDS011;31779;49.124;19.190;2022-11-20T01:17:11;47.63;;;32.25;;
46040;SDS011;31779;49.124;19.190;2022-11-20T01:19:39;47.80;;;31.15;;
46040;SDS011;31779;49.124;19.190;2022-11-20T01:22:06;43.25;;;30.42;;
46040;SDS011;31779;49.124;19.190;2022-11-20T01:24:41;41.22;;;31.02;;
46040;SDS011;31779;49.124;19.190;2022-11-20T01:27:09;47.35;;;30.40;;
46040;SDS011;31779;49.124;19.190;2022-11-20T01:29:37;46.53;;;32.00;;
46040;SDS011;31779;49.124;19.190;2022-11-20T01:32:05;43.70;;;29.90;;
46040;SDS011;31779;49.124;19.190;2022-11-20T01:34:33;45.47;;;30.90;;
46040;SDS011;31779;49.124;19.190;2022-11-20T01:37:00;40.70;;;30.90;;
46040;SDS011;31779;49.124;19.190;2022-11-20T01:39:28;40.90;;;29.60;;
46040;SDS011;31779;49.124;19.190;2022-11-20T01:41:56;41.90;;;30.58;;
46040;SDS011;31779;49.124;19.190;2022-11-20T01:47:47;46.42;;;33.63;;
46040;SDS011;31779;49.124;19.190;2022-11-20T01:50:18;46.58;;;33.72;;
46040;SDS011;31779;49.124;19.190;2022-11-20T01:53:03;48.40;;;34.58;;
46040;SDS011;31779;49.124;19.190;2022-11-20T01:55:35;52.08;;;34.47;;
46040;SDS011;31779;49.124;19.190;2022-11-20T01:58:08;49.40;;;32.35;;
46040;SDS011;31779;49.124;19.190;2022-11-20T02:00:37;50.95;;;37.13;;
46040;SDS011;31779;49.124;19.190;2022-11-20T02:03:12;56.53;;;37.33;;
46040;SDS011;31779;49.124;19.190;2022-11-20T02:08:19;51.83;;;36.05;;
46040;SDS011;31779;49.124;19.190;2022-11-20T02:10:49;50.97;;;37.50;;
46040;SDS011;31779;49.124;19.190;2022-11-20T02:13:17;50.88;;;35.30;;
46040;SDS011;31779;49.124;19.190;2022-11-20T02:16:03;50.42;;;34.47;;
46040;SDS011;31779;49.124;19.190;2022-11-20T02:18:48;51.25;;;34.22;;
46040;SDS011;31779;49.124;19.190;2022-11-20T02:24:03;50.90;;;34.40;;
46040;SDS011;31779;49.124;19.190;2022-11-20T02:26:35;48.03;;;33.28;;
46040;SDS011;31779;49.124;19.190;2022-11-20T02:29:08;42.53;;;31.35;;
46040;SDS011;31779;49.124;19.190;2022-11-20T02:31:36;45.35;;;31.88;;
46040;SDS011;31779;49.124;19.190;2022-11-20T02:34:07;43.47;;;28.60;;
46040;SDS011;31779;49.124;19.190;2022-11-20T02:36:35;47.05;;;31.50;;
46040;SDS011;31779;49.124;19.190;2022-11-20T02:39:05;46.13;;;31.98;;
46040;SDS011;31779;49.124;19.190;2022-11-20T02:41:51;45.42;;;31.35;;
46040;SDS011;31779;49.124;19.190;2022-11-20T02:44:23;44.08;;;32.85;;
46040;SDS011;31779;49.124;19.190;2022-11-20T02:46:51;51.75;;;36.25;;
46040;SDS011;31779;49.124;19.190;2022-11-20T02:49:19;49.80;;;32.42;;
46040;SDS011;31779;49.124;19.190;2022-11-20T02:51:47;50.05;;;33.50;;
46040;SDS011;31779;49.124;19.190;2022-11-20T02:54:15;48.67;;;34.08;;
46040;SDS011;31779;49.124;19.190;2022-11-20T02:56:43;48.35;;;33.92;;
46040;SDS011;31779;49.124;19.190;2022-11-20T02:59:11;47.97;;;33.38;;
46040;SDS011;31779;49.124;19.190;2022-11-20T03:01:38;52.42;;;36.25;;
46040;SDS011;31779;49.124;19.190;2022-11-20T03:04:06;50.63;;;34.97;;
46040;SDS011;31779;49.124;19.190;2022-11-20T03:06:42;46.50;;;34.22;;
46040;SDS011;31779;49.124;19.190;2022-11-20T03:09:09;47.47;;;31.40;;
46040;SDS011;31779;49.124;19.190;2022-11-20T03:11:37;42.58;;;32.25;;
46040;SDS011;31779;49.124;19.190;2022-11-20T03:14:05;48.58;;;35.70;;
46040;SDS011;31779;49.124;19.190;2022-11-20T03:16:53;44.78;;;31.85;;
46040;SDS011;31779;49.124;19.190;2022-11-20T03:19:20;53.25;;;35.50;;
46040;SDS011;31779;49.124;19.190;2022-11-20T03:21:55;46.08;;;32.72;;
46040;SDS011;31779;49.124;19.190;2022-11-20T03:24:23;47.00;;;31.40;;
46040;SDS011;31779;49.124;19.190;2022-11-20T03:26:55;49.15;;;32.92;;
46040;SDS011;31779;49.124;19.190;2022-11-20T03:29:23;48.47;;;31.30;;
46040;SDS011;31779;49.124;19.190;2022-11-20T03:31:51;49.47;;;31.88;;
46040;SDS011;31779;49.124;19.190;2022-11-20T03:34:33;50.15;;;36.13;;
46040;SDS011;31779;49.124;19.190;2022-11-20T03:37:01;48.03;;;32.95;;
46040;SDS011;31779;49.124;19.190;2022-11-20T03:39:31;50.72;;;34.40;;
46040;SDS011;31779;49.124;19.190;2022-11-20T03:41:59;51.38;;;34.75;;
46040;SDS011;31779;49.124;19.190;2022-11-20T03:44:27;47.42;;;33.63;;
46040;SDS011;31779;49.124;19.190;2022-11-20T03:46:55;49.13;;;32.70;;
46040;SDS011;31779;49.124;19.190;2022-11-20T03:49:22;46.50;;;31.77;;
46040;SDS011;31779;49.124;19.190;2022-11-20T03:51:50;52.10;;;32.97;;
46040;SDS011;31779;49.124;19.190;2022-11-20T03:54:18;53.30;;;35.85;;
46040;SDS011;31779;49.124;19.190;2022-11-20T03:56:46;49.58;;;34.08;;
46040;SDS011;31779;49.124;19.190;2022-11-20T03:59:13;47.53;;;33.33;;
46040;SDS011;31779;49.124;19.190;2022-11-20T04:01:41;50.03;;;32.30;;
46040;SDS011;31779;49.124;19.190;2022-11-20T04:04:15;47.70;;;34.45;;
46040;SDS011;31779;49.124;19.190;2022-11-20T04:06:43;45.88;;;32.17;;
46040;SDS011;31779;49.124;19.190;2022-11-20T04:09:11;50.90;;;35.33;;
46040;SDS011;31779;49.124;19.190;2022-11-20T04:11:39;55.88;;;38.22;;
46040;SDS011;31779;49.124;19.190;2022-11-20T04:14:12;47.80;;;35.83;;
46040;SDS011;31779;49.124;19.190;2022-11-20T04:16:48;47.75;;;33.10;;
46040;SDS011;31779;49.124;19.190;2022-11-20T04:19:16;44.13;;;32.40;;
46040;SDS011;31779;49.124;19.190;2022-11-20T04:21:58;54.80;;;38.78;;
46040;SDS011;31779;49.124;19.190;2022-11-20T04:24:26;50.40;;;35.08;;
46040;SDS011;31779;49.124;19.190;2022-11-20T04:26:53;48.45;;;33.38;;
46040;SDS011;31779;49.124;19.190;2022-11-20T04:29:21;47.70;;;32.28;;
46040;SDS011;31779;49.124;19.190;2022-11-20T04:31:49;47.70;;;32.80;;
46040;SDS011;31779;49.124;19.190;2022-11-20T04:34:18;45.92;;;30.85;;
46040;SDS011;31779;49.124;19.190;2022-11-20T04:36:45;46.03;;;31.13;;
46040;SDS011;31779;49.124;19.190;2022-11-20T04:39:13;55.05;;;36.17;;
46040;SDS011;31779;49.124;19.190;2022-11-20T04:41:45;49.88;;;34.15;;
46040;SDS011;31779;49.124;19.190;2022-11-20T04:44:13;47.70;;;29.27;;
46040;SDS011;31779;49.124;19.190;2022-11-20T04:46:44;48.92;;;35.60;;
46040;SDS011;31779;49.124;19.190;2022-11-20T04:49:13;46.30;;;32.83;;
46040;SDS011;31779;49.124;19.190;2022-11-20T04:51:41;49.35;;;33.08;;
46040;SDS011;31779;49.124;19.190;2022-11-20T04:54:10;50.00;;;35.22;;
46040;SDS011;31779;49.124;19.190;2022-11-20T04:56:38;51.63;;;35.03;;
46040;SDS011;31779;49.124;19.190;2022-11-20T04:59:06;47.20;;;34.72;;
46040;SDS011;31779;49.124;19.190;2022-11-20T05:01:34;50.35;;;34.28;;
46040;SDS011;31779;49.124;19.190;2022-11-20T05:04:02;50.10;;;35.20;;
46040;SDS011;31779;49.124;19.190;2022-11-20T05:06:30;45.20;;;34.25;;
46040;SDS011;31779;49.124;19.190;2022-11-20T05:08:58;46.70;;;36.13;;
46040;SDS011;31779;49.124;19.190;2022-11-20T05:11:27;52.10;;;35.83;;
46040;SDS011;31779;49.124;19.190;2022-11-20T05:13:58;52.10;;;36.55;;
46040;SDS011;31779;49.124;19.190;2022-11-20T05:16:27;48.92;;;34.47;;
46040;SDS011;31779;49.124;19.190;2022-11-20T05:18:55;45.63;;;34.65;;
46040;SDS011;31779;49.124;19.190;2022-11-20T05:21:23;50.22;;;34.55;;
46040;SDS011;31779;49.124;19.190;2022-11-20T05:23:51;54.72;;;36.75;;
46040;SDS011;31779;49.124;19.190;2022-11-20T05:26:19;53.20;;;36.17;;
46040;SDS011;31779;49.124;19.190;2022-11-20T05:28:49;51.53;;;36.17;;
46040;SDS011;31779;49.124;19.190;2022-11-20T05:31:18;54.28;;;37.08;;
46040;SDS011;31779;49.124;19.190;2022-11-20T05:33:54;47.22;;;34.40;;
46040;SDS011;31779;49.124;19.190;2022-11-20T05:36:23;52.08;;;35.33;;
46040;SDS011;31779;49.124;19.190;2022-11-20T05:38:52;56.40;;;36.67;;
46040;SDS011;31779;49.124;19.190;2022-11-20T05:41:27;51.08;;;34.88;;
46040;SDS011;31779;49.124;19.190;2022-11-20T05:43:55;54.50;;;37.35;;
46040;SDS011;31779;49.124;19.190;2022-11-20T05:46:23;53.25;;;38.17;;
46040;SDS011;31779;49.124;19.190;2022-11-20T05:48:55;51.28;;;35.20;;
46040;SDS011;31779;49.124;19.190;2022-11-20T05:51:26;49.10;;;34.53;;
46040;SDS011;31779;49.124;19.190;2022-11-20T05:56:25;51.33;;;37.75;;
46040;SDS011;31779;49.124;19.190;2022-11-20T05:58:53;49.92;;;34.38;;
46040;SDS011;31779;49.124;19.190;2022-11-20T06:01:22;50.45;;;35.65;;
46040;SDS011;31779;49.124;19.190;2022-11-20T06:03:52;51.35;;;34.63;;
46040;SDS011;31779;49.124;19.190;2022-11-20T06:06:21;47.20;;;34.25;;
46040;SDS011;31779;49.124;19.190;2022-11-20T06:08:49;50.63;;;34.83;;
46040;SDS011;31779;49.124;19.190;2022-11-20T06:11:16;49.50;;;32.03;;
46040;SDS011;31779;49.124;19.190;2022-11-20T06:13:45;56.90;;;37.88;;
46040;SDS011;31779;49.124;19.190;2022-11-20T06:16:15;48.17;;;33.45;;
46040;SDS011;31779;49.124;19.190;2022-11-20T06:18:44;44.85;;;32.55;;
46040;SDS011;31779;49.124;19.190;2022-11-20T06:23:40;52.85;;;36.03;;
46040;SDS011;31779;49.124;19.190;2022-11-20T06:26:11;45.47;;;33.17;;
46040;SDS011;31779;49.124;19.190;2022-11-20T06:28:40;56.95;;;31.95;;
46040;SDS011;31779;49.124;19.190;2022-11-20T06:31:10;53.83;;;33.95;;
46040;SDS011;31779;49.124;19.190;2022-11-20T06:33:39;50.40;;;33.75;;
46040;SDS011;31779;49.124;19.190;2022-11-20T06:36:07;48.75;;;34.08;;
46040;SDS011;31779;49.124;19.190;2022-11-20T06:38:37;46.20;;;33.83;;
46040;SDS011;31779;49.124;19.190;2022-11-20T06:41:06;50.58;;;35.88;;
46040;SDS011;31779;49.124;19.190;2022-11-20T06:43:37;47.25;;;33.17;;
46040;SDS011;31779;49.124;19.190;2022-11-20T06:46:05;48.08;;;35.35;;
46040;SDS011;31779;49.124;19.190;2022-11-20T06:48:33;47.30;;;31.63;;
46040;SDS011;31779;49.124;19.190;2022-11-20T06:51:05;49.25;;;32.97;;
46040;SDS011;31779;49.124;19.190;2022-11-20T06:53:34;51.60;;;32.97;;
46040;SDS011;31779;49.124;19.190;2022-11-20T06:56:03;42.28;;;31.60;;
46040;SDS011;31779;49.124;19.190;2022-11-20T06:58:33;46.20;;;33.80;;
46040;SDS011;31779;49.124;19.190;2022-11-20T07:01:02;46.35;;;31.38;;
46040;SDS011;31779;49.124;19.190;2022-11-20T07:03:32;48.50;;;35.38;;
46040;SDS011;31779;49.124;19.190;2022-11-20T07:06:00;48.65;;;33.78;;
46040;SDS011;31779;49.124;19.190;2022-11-20T07:08:29;48.78;;;33.63;;
46040;SDS011;31779;49.124;19.190;2022-11-20T07:10:57;136.65;;;74.78;;
46040;SDS011;31779;49.124;19.190;2022-11-20T07:13:27;65.28;;;47.15;;
46040;SDS011;31779;49.124;19.190;2022-11-20T07:15:58;71.72;;;54.00;;
46040;SDS011;31779;49.124;19.190;2022-11-20T07:18:31;57.72;;;43.90;;
46040;SDS011;31779;49.124;19.190;2022-11-20T07:21:08;55.75;;;39.35;;
46040;SDS011;31779;49.124;19.190;2022-11-20T07:23:37;51.90;;;37.90;;
46040;SDS011;31779;49.124;19.190;2022-11-20T07:26:09;51.90;;;35.25;;
46040;SDS011;31779;49.124;19.190;2022-11-20T07:28:37;47.42;;;34.35;;
46040;SDS011;31779;49.124;19.190;2022-11-20T07:31:05;46.58;;;30.95;;
46040;SDS011;31779;49.124;19.190;2022-11-20T07:33:34;45.95;;;31.70;;
46040;SDS011;31779;49.124;19.190;2022-11-20T07:36:03;46.63;;;36.47;;
46040;SDS011;31779;49.124;19.190;2022-11-20T07:38:31;54.88;;;39.15;;
46040;SDS011;31779;49.124;19.190;2022-11-20T07:40:59;48.92;;;34.88;;
46040;SDS011;31779;49.124;19.190;2022-11-20T07:43:29;48.23;;;35.17;;
46040;SDS011;31779;49.124;19.190;2022-11-20T07:46:01;54.50;;;38.30;;
46040;SDS011;31779;49.124;19.190;2022-11-20T07:48:28;55.00;;;37.47;;
46040;SDS011;31779;49.124;19.190;2022-11-20T07:50:56;54.13;;;35.35;;
46040;SDS011;31779;49.124;19.190;2022-11-20T07:53:24;50.67;;;36.58;;
46040;SDS011;31779;49.124;19.190;2022-11-20T07:55:52;54.90;;;36.60;;
46040;SDS011;31779;49.124;19.190;2022-11-20T07:58:20;52.75;;;39.35;;
46040;SDS011;31779;49.124;19.190;2022-11-20T08:00:49;47.83;;;34.08;;
46040;SDS011;31779;49.124;19.190;2022-11-20T08:03:17;46.92;;;33.80;;
46040;SDS011;31779;49.124;19.190;2022-11-20T08:05:51;53.80;;;37.63;;
46040;SDS011;31779;49.124;19.190;2022-11-20T08:08:19;50.42;;;37.55;;
46040;SDS011;31779;49.124;19.190;2022-11-20T08:10:48;52.63;;;38.05;;
46040;SDS011;31779;49.124;19.190;2022-11-20T08:13:16;48.80;;;35.47;;
46040;SDS011;31779;49.124;19.190;2022-11-20T08:16:02;50.60;;;37.40;;
46040;SDS011;31779;49.124;19.190;2022-11-20T08:18:30;55.63;;;42.95;;
46040;SDS011;31779;49.124;19.190;2022-11-20T08:21:03;51.78;;;38.95;;
46040;SDS011;31779;49.124;19.190;2022-11-20T08:23:41;47.20;;;35.03;;
46040;SDS011;31779;49.124;19.190;2022-11-20T08:26:18;54.42;;;40.40;;
46040;SDS011;31779;49.124;19.190;2022-11-20T08:28:52;49.70;;;33.50;;
46040;SDS011;31779;49.124;19.190;2022-11-20T08:31:29;51.38;;;34.53;;
46040;SDS011;31779;49.124;19.190;2022-11-20T08:34:03;48.80;;;34.70;;
46040;SDS011;31779;49.124;19.190;2022-11-20T08:36:37;70.95;;;50.72;;
46040;SDS011;31779;49.124;19.190;2022-11-20T08:39:15;60.00;;;44.15;;
46040;SDS011;31779;49.124;19.190;2022-11-20T08:41:46;51.38;;;36.65;;
46040;SDS011;31779;49.124;19.190;2022-11-20T09:08:40;43.17;;;28.95;;
46040;SDS011;31779;49.124;19.190;2022-11-20T09:11:10;36.97;;;29.10;;
46040;SDS011;31779;49.124;19.190;2022-11-20T09:13:39;35.83;;;26.83;;
46040;SDS011;31779;49.124;19.190;2022-11-20T09:16:10;35.45;;;26.67;;
46040;SDS011;31779;49.124;19.190;2022-11-20T09:18:49;36.97;;;26.20;;
46040;SDS011;31779;49.124;19.190;2022-11-20T09:21:42;36.55;;;26.25;;
46040;SDS011;31779;49.124;19.190;2022-11-20T09:24:14;35.83;;;24.77;;
46040;SDS011;31779;49.124;19.190;2022-11-20T09:26:43;39.17;;;28.23;;
46040;SDS011;31779;49.124;19.190;2022-11-20T09:29:12;35.78;;;27.50;;
46040;SDS011;31779;49.124;19.190;2022-11-20T09:31:44;36.10;;;25.63;;
46040;SDS011;31779;49.124;19.190;2022-11-20T09:34:17;28.08;;;22.30;;
46040;SDS011;31779;49.124;19.190;2022-11-20T09:36:46;30.90;;;24.27;;
46040;SDS011;31779;49.124;19.190;2022-11-20T09:39:18;33.50;;;25.73;;
46040;SDS011;31779;49.124;19.190;2022-11-20T09:47:28;30.17;;;24.20;;
46040;SDS011;31779;49.124;19.190;2022-11-20T09:55:57;32.72;;;25.30;;
46040;SDS011;31779;49.124;19.190;2022-11-20T10:06:43;32.97;;;24.27;;
46040;SDS011;31779;49.124;19.190;2022-11-20T10:09:53;33.40;;;24.53;;
46040;SDS011;31779;49.124;19.190;2022-11-20T10:15:24;37.08;;;26.50;;
46040;SDS011;31779;49.124;19.190;2022-11-20T10:26:33;35.97;;;27.55;;
46040;SDS011;31779;49.124;19.190;2022-11-20T10:31:44;34.47;;;27.15;;
46040;SDS011;31779;49.124;19.190;2022-11-20T10:42:51;35.00;;;26.67;;
46040;SDS011;31779;49.124;19.190;2022-11-20T10:48:04;34.20;;;25.55;;
46040;SDS011;31779;49.124;19.190;2022-11-20T10:50:46;28.17;;;21.85;;
46040;SDS011;31779;49.124;19.190;2022-11-20T10:53:45;41.13;;;28.48;;
46040;SDS011;31779;49.124;19.190;2022-11-20T10:56:17;33.58;;;22.50;;
46040;SDS011;31779;49.124;19.190;2022-11-20T11:01:51;36.55;;;25.92;;
46040;SDS011;31779;49.124;19.190;2022-11-20T11:07:11;35.95;;;26.00;;
46040;SDS011;31779;49.124;19.190;2022-11-20T11:09:43;33.63;;;22.88;;
46040;SDS011;31779;49.124;19.190;2022-11-20T11:12:19;38.53;;;27.23;;
46040;SDS011;31779;49.124;19.190;2022-11-20T11:20:06;26.33;;;20.17;;
46040;SDS011;31779;49.124;19.190;2022-11-20T11:22:43;35.70;;;25.33;;
46040;SDS011;31779;49.124;19.190;2022-11-20T11:25:20;41.55;;;30.17;;
46040;SDS011;31779;49.124;19.190;2022-11-20T11:27:49;37.22;;;25.98;;
46040;SDS011;31779;49.124;19.190;2022-11-20T11:30:19;27.98;;;22.35;;
46040;SDS011;31779;49.124;19.190;2022-11-20T11:32:48;36.72;;;26.27;;
46040;SDS011;31779;49.124;19.190;2022-11-20T11:35:27;33.28;;;25.95;;
46040;SDS011;31779;49.124;19.190;2022-11-20T11:38:03;28.52;;;20.23;;
46040;SDS011;31779;49.124;19.190;2022-11-20T11:40:36;35.08;;;22.92;;
46040;SDS011;31779;49.124;19.190;2022-11-20T11:43:16;33.85;;;25.45;;
46040;SDS011;31779;49.124;19.190;2022-11-20T11:46:29;38.90;;;27.33;;
46040;SDS011;31779;49.124;19.190;2022-11-20T11:51:34;29.10;;;22.15;;
46040;SDS011;31779;49.124;19.190;2022-11-20T11:54:28;35.50;;;26.70;;
46040;SDS011;31779;49.124;19.190;2022-11-20T12:00:19;36.67;;;26.70;;
46040;SDS011;31779;49.124;19.190;2022-11-20T12:08:53;32.83;;;23.85;;
46040;SDS011;31779;49.124;19.190;2022-11-20T12:16:43;34.08;;;24.65;;
46040;SDS011;31779;49.124;19.190;2022-11-20T12:19:11;31.35;;;22.10;;
46040;SDS011;31779;49.124;19.190;2022-11-20T12:21:48;35.88;;;26.08;;
46040;SDS011;31779;49.124;19.190;2022-11-20T12:30:20;35.53;;;25.85;;
46040;SDS011;31779;49.124;19.190;2022-11-20T12:47:18;39.10;;;28.15;;
46040;SDS011;31779;49.124;19.190;2022-11-20T12:53:23;33.70;;;25.02;;
46040;SDS011;31779;49.124;19.190;2022-11-20T12:56:05;28.97;;;22.53;;
46040;SDS011;31779;49.124;19.190;2022-11-20T13:01:44;31.25;;;22.50;;
46040;SDS011;31779;49.124;19.190;2022-11-20T13:07:01;33.30;;;24.15;;
46040;SDS011;31779;49.124;19.190;2022-11-20T13:09:33;33.08;;;26.20;;
46040;SDS011;31779;49.124;19.190;2022-11-20T13:18:00;30.55;;;23.58;;
46040;SDS011;31779;49.124;19.190;2022-11-20T13:20:44;31.00;;;25.00;;
46040;SDS011;31779;49.124;19.190;2022-11-20T13:23:22;33.80;;;23.83;;
46040;SDS011;31779;49.124;19.190;2022-11-20T13:26:05;31.85;;;25.73;;
46040;SDS011;31779;49.124;19.190;2022-11-20T13:28:41;27.75;;;20.15;;
46040;SDS011;31779;49.124;19.190;2022-11-20T13:31:22;26.90;;;20.25;;
46040;SDS011;31779;49.124;19.190;2022-11-20T13:33:59;28.85;;;20.98;;
46040;SDS011;31779;49.124;19.190;2022-11-20T13:36:29;29.95;;;23.73;;
46040;SDS011;31779;49.124;19.190;2022-11-20T13:41:31;43.08;;;29.88;;
46040;SDS011;31779;49.124;19.190;2022-11-20T13:44:15;46.00;;;33.05;;
46040;SDS011;31779;49.124;19.190;2022-11-20T13:46:52;39.65;;;28.20;;
46040;SDS011;31779;49.124;19.190;2022-11-20T13:49:23;30.60;;;22.42;;
46040;SDS011;31779;49.124;19.190;2022-11-20T13:52:03;64.70;;;47.65;;
46040;SDS011;31779;49.124;19.190;2022-11-20T13:55:02;38.10;;;25.73;;
46040;SDS011;31779;49.124;19.190;2022-11-20T14:00:20;36.10;;;26.23;;
46040;SDS011;31779;49.124;19.190;2022-11-20T14:05:21;38.22;;;27.38;;
46040;SDS011;31779;49.124;19.190;2022-11-20T14:07:50;30.52;;;21.23;;
46040;SDS011;31779;49.124;19.190;2022-11-20T14:10:24;27.48;;;20.10;;
46040;SDS011;31779;49.124;19.190;2022-11-20T14:12:58;30.58;;;22.20;;
46040;SDS011;31779;49.124;19.190;2022-11-20T14:15:38;35.10;;;21.83;;
46040;SDS011;31779;49.124;19.190;2022-11-20T14:18:12;38.80;;;26.52;;
46040;SDS011;31779;49.124;19.190;2022-11-20T14:20:42;39.97;;;26.33;;
46040;SDS011;31779;49.124;19.190;2022-11-20T14:23:11;29.85;;;23.23;;
46040;SDS011;31779;49.124;19.190;2022-11-20T14:25:42;35.58;;;26.77;;
46040;SDS011;31779;49.124;19.190;2022-11-20T14:28:18;35.85;;;27.45;;
46040;SDS011;31779;49.124;19.190;2022-11-20T14:30:51;33.95;;;24.67;;
46040;SDS011;31779;49.124;19.190;2022-11-20T14:33:20;45.25;;;31.90;;
46040;SDS011;31779;49.124;19.190;2022-11-20T14:35:52;48.13;;;35.55;;
46040;SDS011;31779;49.124;19.190;2022-11-20T14:38:27;50.72;;;37.47;;
46040;SDS011;31779;49.124;19.190;2022-11-20T14:41:16;45.65;;;32.00;;
46040;SDS011;31779;49.124;19.190;2022-11-20T14:43:57;45.50;;;33.58;;
46040;SDS011;31779;49.124;19.190;2022-11-20T14:46:26;42.35;;;28.77;;
46040;SDS011;31779;49.124;19.190;2022-11-20T14:48:55;37.28;;;26.50;;
46040;SDS011;31779;49.124;19.190;2022-11-20T14:51:37;40.13;;;28.95;;
46040;SDS011;31779;49.124;19.190;2022-11-20T14:54:14;40.30;;;29.80;;
46040;SDS011;31779;49.124;19.190;2022-11-20T14:56:56;38.47;;;29.00;;
46040;SDS011;31779;49.124;19.190;2022-11-20T14:59:27;37.97;;;28.55;;
46040;SDS011;31779;49.124;19.190;2022-11-20T15:01:59;36.75;;;27.30;;
46040;SDS011;31779;49.124;19.190;2022-11-20T15:04:56;41.92;;;27.80;;
46040;SDS011;31779;49.124;19.190;2022-11-20T15:07:29;36.47;;;26.20;;
46040;SDS011;31779;49.124;19.190;2022-11-20T15:10:05;38.70;;;27.88;;
46040;SDS011;31779;49.124;19.190;2022-11-20T15:12:39;37.38;;;26.77;;
46040;SDS011;31779;49.124;19.190;2022-11-20T15:15:19;34.53;;;24.67;;
46040;SDS011;31779;49.124;19.190;2022-11-20T15:17:59;34.25;;;24.50;;
46040;SDS011;31779;49.124;19.190;2022-11-20T15:20:28;33.50;;;24.55;;
46040;SDS011;31779;49.124;19.190;2022-11-20T15:23:01;36.47;;;25.95;;
46040;SDS011;31779;49.124;19.190;2022-11-20T15:25:29;33.55;;;22.88;;
46040;SDS011;31779;49.124;19.190;2022-11-20T15:27:57;29.50;;;22.83;;
46040;SDS011;31779;49.124;19.190;2022-11-20T15:30:25;31.98;;;23.35;;
46040;SDS011;31779;49.124;19.190;2022-11-20T15:32:53;38.47;;;26.35;;
46040;SDS011;31779;49.124;19.190;2022-11-20T15:35:21;33.13;;;23.33;;
46040;SDS011;31779;49.124;19.190;2022-11-20T15:37:49;29.45;;;21.52;;
46040;SDS011;31779;49.124;19.190;2022-11-20T15:40:18;29.33;;;22.05;;
46040;SDS011;31779;49.124;19.190;2022-11-20T15:42:46;30.15;;;21.20;;
46040;SDS011;31779;49.124;19.190;2022-11-20T15:45:44;62.78;;;40.65;;
46040;SDS011;31779;49.124;19.190;2022-11-20T15:48:20;90.25;;;63.97;;
46040;SDS011;31779;49.124;19.190;2022-11-20T15:50:57;93.82;;;62.63;;
46040;SDS011;31779;49.124;19.190;2022-11-20T15:53:29;97.22;;;64.35;;
46040;SDS011;31779;49.124;19.190;2022-11-20T15:55:57;93.20;;;64.25;;
46040;SDS011;31779;49.124;19.190;2022-11-20T15:58:26;83.28;;;58.90;;
46040;SDS011;31779;49.124;19.190;2022-11-20T16:00:54;61.15;;;43.58;;
46040;SDS011;31779;49.124;19.190;2022-11-20T16:03:23;62.08;;;42.10;;
46040;SDS011;31779;49.124;19.190;2022-11-20T16:05:55;65.70;;;45.47;;
46040;SDS011;31779;49.124;19.190;2022-11-20T16:08:23;59.17;;;43.53;;
46040;SDS011;31779;49.124;19.190;2022-11-20T16:10:51;61.60;;;39.53;;
46040;SDS011;31779;49.124;19.190;2022-11-20T16:13:20;67.20;;;49.95;;
46040;SDS011;31779;49.124;19.190;2022-11-20T16:16:07;61.83;;;45.67;;
46040;SDS011;31779;49.124;19.190;2022-11-20T16:18:48;53.38;;;36.75;;
46040;SDS011;31779;49.124;19.190;2022-11-20T16:21:17;43.20;;;32.53;;
46040;SDS011;31779;49.124;19.190;2022-11-20T16:23:45;60.80;;;47.42;;
46040;SDS011;31779;49.124;19.190;2022-11-20T16:26:16;58.42;;;41.17;;
46040;SDS011;31779;49.124;19.190;2022-11-20T16:28:46;59.63;;;41.55;;
46040;SDS011;31779;49.124;19.190;2022-11-20T16:31:15;52.70;;;37.03;;
46040;SDS011;31779;49.124;19.190;2022-11-20T16:34:05;53.42;;;36.53;;
46040;SDS011;31779;49.124;19.190;2022-11-20T16:36:49;47.90;;;32.67;;
46040;SDS011;31779;49.124;19.190;2022-11-20T16:39:17;67.10;;;48.65;;
46040;SDS011;31779;49.124;19.190;2022-11-20T16:41:50;56.28;;;41.30;;
46040;SDS011;31779;49.124;19.190;2022-11-20T16:44:20;57.33;;;42.10;;
46040;SDS011;31779;49.124;19.190;2022-11-20T16:46:48;50.45;;;34.42;;
46040;SDS011;31779;49.124;19.190;2022-11-20T16:49:16;39.13;;;28.92;;
46040;SDS011;31779;49.124;19.190;2022-11-20T16:51:45;40.58;;;29.58;;
46040;SDS011;31779;49.124;19.190;2022-11-20T16:54:13;36.47;;;27.67;;
46040;SDS011;31779;49.124;19.190;2022-11-20T16:56:47;38.80;;;28.67;;
46040;SDS011;31779;49.124;19.190;2022-11-20T16:59:18;46.00;;;32.50;;
46040;SDS011;31779;49.124;19.190;2022-11-20T17:01:46;54.67;;;39.70;;
46040;SDS011;31779;49.124;19.190;2022-11-20T17:04:14;39.75;;;29.27;;
46040;SDS011;31779;49.124;19.190;2022-11-20T17:06:42;55.65;;;38.47;;
46040;SDS011;31779;49.124;19.190;2022-11-20T17:09:11;51.80;;;36.70;;
46040;SDS011;31779;49.124;19.190;2022-11-20T17:11:40;52.78;;;40.30;;
46040;SDS011;31779;49.124;19.190;2022-11-20T17:14:09;59.10;;;42.17;;
46040;SDS011;31779;49.124;19.190;2022-11-20T17:16:41;57.13;;;39.55;;